sensor_id;sensor_type;location;lat;lon;timestamp;pressure;altitude;pressure_sealevel;temperature;humidity
70916;BME280;58557;50.982;-3.222;2023-04-01T00:01:13;99565.27;;;9.81;82.83
70916;BME280;58557;50.982;-3.222;2023-04-01T00:03:36;99566.07;;;9.40;84.62
70916;BME280;58557;50.982;-3.222;2023-04-01T00:06:03;99570.67;;;8.22;86.82
70916;BME280;58557;50.982;-3.222;2023-04-01T00:08:29;99578.63;;;8.68;89.10
70916;BME280;58557;50.982;-3.222;2023-04-01T00:10:54;99574.17;;;7.99;91.47
70916;BME280;58557;50.982;-3.222;2023-04-01T00:13:20;99576.78;;;8.62;89.97
70916;BME280;58557;50.982;-3.222;2023-04-01T00:15:46;99576.57;;;8.50;89.04
70916;BME280;58557;50.982;-3.222;2023-04-01T00:18:11;99574.16;;;8.66;90.02
70916;BME280;58557;50.982;-3.222;2023-04-01T00:20:37;99579.94;;;8.15;90.22
70916;BME280;58557;50.982;-3.222;2023-04-01T00:23:03;99583.53;;;8.08;90.96
70916;BME280;58557;50.982;-3.222;2023-04-01T00:25:28;99578.58;;;8.72;90.01
70916;BME280;58557;50.982;-3.222;2023-04-01T00:27:54;99590.79;;;9.44;86.49
70916;BME280;58557;50.982;-3.222;2023-04-01T00:30:19;99591.70;;;8.32;89.15
70916;BME280;58557;50.982;-3.222;2023-04-01T00:32:45;99593.58;;;8.57;88.78
70916;BME280;58557;50.982;-3.222;2023-04-01T00:35:11;99593.66;;;8.36;89.22
70916;BME280;58557;50.982;-3.222;2023-04-01T00:37:37;99597.91;;;9.32;86.05
70916;BME280;58557;50.982;-3.222;2023-04-01T00:40:03;99591.00;;;8.42;88.34
70916;BME280;58557;50.982;-3.222;2023-04-01T00:42:28;99599.65;;;9.30;86.98
70916;BME280;58557;50.982;-3.222;2023-04-01T00:44:55;99591.51;;;8.28;88.70
70916;BME280;58557;50.982;-3.222;2023-04-01T00:47:25;99593.51;;;8.23;90.31
70916;BME280;58557;50.982;-3.222;2023-04-01T00:49:47;99598.12;;;9.37;84.28
70916;BME280;58557;50.982;-3.222;2023-04-01T00:52:13;99599.42;;;9.18;83.94
70916;BME280;58557;50.982;-3.222;2023-04-01T00:54:37;99601.02;;;9.57;83.72
70916;BME280;58557;50.982;-3.222;2023-04-01T00:57:06;99597.55;;;9.02;85.82
70916;BME280;58557;50.982;-3.222;2023-04-01T00:59:30;99593.89;;;8.33;87.23
70916;BME280;58557;50.982;-3.222;2023-04-01T01:01:53;99597.58;;;7.96;91.39
70916;BME280;58557;50.982;-3.222;2023-04-01T01:04:23;99595.92;;;8.01;90.14
70916;BME280;58557;50.982;-3.222;2023-04-01T01:06:50;99606.32;;;9.01;87.67
70916;BME280;58557;50.982;-3.222;2023-04-01T01:09:23;99602.52;;;8.26;89.33
70916;BME280;58557;50.982;-3.222;2023-04-01T01:11:41;99612.33;;;8.12;90.33
70916;BME280;58557;50.982;-3.222;2023-04-01T01:14:10;99611.30;;;7.98;90.37
70916;BME280;58557;50.982;-3.222;2023-04-01T01:16:30;99610.88;;;8.15;90.36
70916;BME280;58557;50.982;-3.222;2023-04-01T01:18:59;99613.16;;;8.78;86.88
70916;BME280;58557;50.982;-3.222;2023-04-01T01:21:30;99618.75;;;8.89;86.98
70916;BME280;58557;50.982;-3.222;2023-04-01T01:24:05;99617.11;;;8.08;90.93
70916;BME280;58557;50.982;-3.222;2023-04-01T01:26:23;99621.20;;;8.10;91.40
70916;BME280;58557;50.982;-3.222;2023-04-01T01:28:44;99621.55;;;8.15;90.61
70916;BME280;58557;50.982;-3.222;2023-04-01T01:31:07;99620.74;;;8.73;88.03
70916;BME280;58557;50.982;-3.222;2023-04-01T01:33:45;99616.00;;;9.01;86.31
70916;BME280;58557;50.982;-3.222;2023-04-01T01:35:56;99629.55;;;10.00;82.55
70916;BME280;58557;50.982;-3.222;2023-04-01T01:38:23;99624.81;;;9.30;84.53
70916;BME280;58557;50.982;-3.222;2023-04-01T01:40:49;99632.20;;;9.41;84.18
70916;BME280;58557;50.982;-3.222;2023-04-01T01:43:14;99635.98;;;8.88;85.54
70916;BME280;58557;50.982;-3.222;2023-04-01T01:45:40;99641.26;;;9.55;83.08
70916;BME280;58557;50.982;-3.222;2023-04-01T01:48:04;99639.03;;;9.12;86.30
70916;BME280;58557;50.982;-3.222;2023-04-01T01:50:29;99635.96;;;8.22;87.71
70916;BME280;58557;50.982;-3.222;2023-04-01T01:53:05;99636.77;;;7.95;88.22
70916;BME280;58557;50.982;-3.222;2023-04-01T01:55:27;99644.65;;;7.75;89.45
70916;BME280;58557;50.982;-3.222;2023-04-01T01:57:45;99644.92;;;8.10;89.39
70916;BME280;58557;50.982;-3.222;2023-04-01T02:00:17;99647.77;;;8.87;86.03
70916;BME280;58557;50.982;-3.222;2023-04-01T02:02:37;99645.55;;;8.73;85.78
70916;BME280;58557;50.982;-3.222;2023-04-01T02:05:04;99650.58;;;8.63;85.71
70916;BME280;58557;50.982;-3.222;2023-04-01T02:07:32;99645.70;;;9.28;83.53
70916;BME280;58557;50.982;-3.222;2023-04-01T02:09:54;99654.50;;;9.82;82.37
70916;BME280;58557;50.982;-3.222;2023-04-01T02:12:21;99651.05;;;8.47;85.92
70916;BME280;58557;50.982;-3.222;2023-04-01T02:14:49;99650.83;;;8.62;85.87
70916;BME280;58557;50.982;-3.222;2023-04-01T02:17:13;99653.48;;;8.81;85.42
70916;BME280;58557;50.982;-3.222;2023-04-01T02:19:40;99652.00;;;8.40;86.18
70916;BME280;58557;50.982;-3.222;2023-04-01T02:22:05;99651.80;;;9.10;82.36
70916;BME280;58557;50.982;-3.222;2023-04-01T02:24:30;99654.14;;;9.17;84.88
70916;BME280;58557;50.982;-3.222;2023-04-01T02:26:53;99652.84;;;9.53;82.44
70916;BME280;58557;50.982;-3.222;2023-04-01T02:29:25;99649.02;;;8.89;82.87
70916;BME280;58557;50.982;-3.222;2023-04-01T02:31:45;99653.16;;;9.00;83.33
70916;BME280;58557;50.982;-3.222;2023-04-01T02:34:11;99653.90;;;8.80;83.91
70916;BME280;58557;50.982;-3.222;2023-04-01T02:36:37;99653.23;;;8.23;86.10
70916;BME280;58557;50.982;-3.222;2023-04-01T02:39:02;99651.36;;;8.91;84.80
70916;BME280;58557;50.982;-3.222;2023-04-01T02:41:28;99657.06;;;9.65;82.32
70916;BME280;58557;50.982;-3.222;2023-04-01T02:43:53;99662.47;;;10.42;79.26
70916;BME280;58557;50.982;-3.222;2023-04-01T02:46:19;99666.83;;;9.82;79.45
70916;BME280;58557;50.982;-3.222;2023-04-01T02:48:45;99665.67;;;10.46;77.62
70916;BME280;58557;50.982;-3.222;2023-04-01T02:51:10;99666.88;;;9.73;79.10
70916;BME280;58557;50.982;-3.222;2023-04-01T02:53:36;99664.19;;;10.39;78.14
70916;BME280;58557;50.982;-3.222;2023-04-01T02:56:02;99665.43;;;10.19;77.74
70916;BME280;58557;50.982;-3.222;2023-04-01T02:58:27;99668.37;;;9.70;80.95
70916;BME280;58557;50.982;-3.222;2023-04-01T03:00:53;99667.04;;;8.68;84.94
70916;BME280;58557;50.982;-3.222;2023-04-01T03:03:19;99668.35;;;9.54;82.34
70916;BME280;58557;50.982;-3.222;2023-04-01T03:05:45;99665.42;;;8.53;84.58
70916;BME280;58557;50.982;-3.222;2023-04-01T03:08:10;99667.24;;;9.64;81.73
70916;BME280;58557;50.982;-3.222;2023-04-01T03:10:36;99669.02;;;9.53;81.11
70916;BME280;58557;50.982;-3.222;2023-04-01T03:13:01;99667.58;;;11.10;75.85
70916;BME280;58557;50.982;-3.222;2023-04-01T03:15:32;99672.81;;;10.11;78.48
70916;BME280;58557;50.982;-3.222;2023-04-01T03:17:53;99675.28;;;10.44;78.29
70916;BME280;58557;50.982;-3.222;2023-04-01T03:20:19;99675.48;;;11.02;77.36
70916;BME280;58557;50.982;-3.222;2023-04-01T03:22:44;99677.19;;;10.67;76.68
70916;BME280;58557;50.982;-3.222;2023-04-01T03:25:10;99671.44;;;10.92;75.18
70916;BME280;58557;50.982;-3.222;2023-04-01T03:27:34;99678.11;;;9.06;80.34
70916;BME280;58557;50.982;-3.222;2023-04-01T03:30:00;99681.12;;;8.95;81.79
70916;BME280;58557;50.982;-3.222;2023-04-01T03:32:25;99688.48;;;9.27;80.64
70916;BME280;58557;50.982;-3.222;2023-04-01T03:34:51;99681.86;;;8.82;82.51
70916;BME280;58557;50.982;-3.222;2023-04-01T03:37:16;99688.46;;;9.63;80.11
70916;BME280;58557;50.982;-3.222;2023-04-01T03:39:42;99687.78;;;9.60;78.04
70916;BME280;58557;50.982;-3.222;2023-04-01T03:42:08;99688.17;;;10.05;76.94
70916;BME280;58557;50.982;-3.222;2023-04-01T03:44:34;99686.33;;;9.24;78.47
70916;BME280;58557;50.982;-3.222;2023-04-01T03:46:59;99684.72;;;9.91;75.81
70916;BME280;58557;50.982;-3.222;2023-04-01T03:49:24;99685.52;;;8.73;81.12
70916;BME280;58557;50.982;-3.222;2023-04-01T03:51:50;99688.99;;;10.19;77.44
70916;BME280;58557;50.982;-3.222;2023-04-01T03:54:15;99693.93;;;10.11;77.57
70916;BME280;58557;50.982;-3.222;2023-04-01T03:56:41;99694.22;;;10.50;77.56
70916;BME280;58557;50.982;-3.222;2023-04-01T03:59:07;99697.09;;;10.27;75.19
70916;BME280;58557;50.982;-3.222;2023-04-01T04:01:33;99699.04;;;11.20;73.58
70916;BME280;58557;50.982;-3.222;2023-04-01T04:03:59;99700.62;;;10.87;73.37
70916;BME280;58557;50.982;-3.222;2023-04-01T04:06:26;99696.06;;;10.89;72.69
70916;BME280;58557;50.982;-3.222;2023-04-01T04:08:50;99705.32;;;9.15;77.92
70916;BME280;58557;50.982;-3.222;2023-04-01T04:11:16;99707.63;;;9.53;77.32
70916;BME280;58557;50.982;-3.222;2023-04-01T04:13:42;99705.08;;;11.50;72.33
70916;BME280;58557;50.982;-3.222;2023-04-01T04:16:09;99714.53;;;10.07;76.85
70916;BME280;58557;50.982;-3.222;2023-04-01T04:18:33;99714.49;;;10.16;75.47
70916;BME280;58557;50.982;-3.222;2023-04-01T04:20:59;99714.26;;;10.27;75.77
70916;BME280;58557;50.982;-3.222;2023-04-01T04:23:25;99714.58;;;10.08;75.28
70916;BME280;58557;50.982;-3.222;2023-04-01T04:25:56;99710.48;;;11.15;72.43
70916;BME280;58557;50.982;-3.222;2023-04-01T04:28:16;99714.91;;;10.14;74.67
70916;BME280;58557;50.982;-3.222;2023-04-01T04:30:42;99722.47;;;9.86;75.90
70916;BME280;58557;50.982;-3.222;2023-04-01T04:33:08;99718.77;;;10.20;75.61
70916;BME280;58557;50.982;-3.222;2023-04-01T04:35:38;99714.83;;;11.45;72.31
70916;BME280;58557;50.982;-3.222;2023-04-01T04:37:59;99724.53;;;10.55;74.40
70916;BME280;58557;50.982;-3.222;2023-04-01T04:40:25;99726.02;;;10.40;74.78
70916;BME280;58557;50.982;-3.222;2023-04-01T04:42:50;99727.83;;;10.10;76.23
70916;BME280;58557;50.982;-3.222;2023-04-01T04:45:16;99729.25;;;11.55;71.80
70916;BME280;58557;50.982;-3.222;2023-04-01T04:47:42;99734.40;;;10.94;72.98
70916;BME280;58557;50.982;-3.222;2023-04-01T04:50:08;99736.70;;;9.83;75.67
70916;BME280;58557;50.982;-3.222;2023-04-01T04:52:34;99737.01;;;10.44;75.49
70916;BME280;58557;50.982;-3.222;2023-04-01T04:54:59;99730.59;;;8.40;79.28
70916;BME280;58557;50.982;-3.222;2023-04-01T04:57:25;99735.00;;;9.78;77.43
70916;BME280;58557;50.982;-3.222;2023-04-01T04:59:50;99738.01;;;9.74;77.63
70916;BME280;58557;50.982;-3.222;2023-04-01T05:02:16;99738.80;;;9.85;76.86
70916;BME280;58557;50.982;-3.222;2023-04-01T05:04:42;99735.84;;;9.44;77.76
70916;BME280;58557;50.982;-3.222;2023-04-01T05:07:08;99738.00;;;9.89;77.40
70916;BME280;58557;50.982;-3.222;2023-04-01T05:09:34;99742.94;;;11.01;72.32
70916;BME280;58557;50.982;-3.222;2023-04-01T05:12:00;99748.41;;;10.51;73.28
70916;BME280;58557;50.982;-3.222;2023-04-01T05:14:25;99751.61;;;11.26;71.81
70916;BME280;58557;50.982;-3.222;2023-04-01T05:16:51;99748.11;;;10.93;72.43
70916;BME280;58557;50.982;-3.222;2023-04-01T05:19:17;99757.65;;;10.07;75.29
70916;BME280;58557;50.982;-3.222;2023-04-01T05:21:42;99752.21;;;10.53;74.16
70916;BME280;58557;50.982;-3.222;2023-04-01T05:24:08;99755.57;;;10.27;75.62
70916;BME280;58557;50.982;-3.222;2023-04-01T05:26:34;99757.18;;;9.34;78.75
70916;BME280;58557;50.982;-3.222;2023-04-01T05:29:00;99756.72;;;9.12;80.07
70916;BME280;58557;50.982;-3.222;2023-04-01T05:31:26;99760.35;;;8.92;80.46
70916;BME280;58557;50.982;-3.222;2023-04-01T05:33:50;99768.30;;;9.96;76.28
70916;BME280;58557;50.982;-3.222;2023-04-01T05:36:16;99766.00;;;9.66;78.07
70916;BME280;58557;50.982;-3.222;2023-04-01T05:38:42;99768.32;;;11.18;73.02
70916;BME280;58557;50.982;-3.222;2023-04-01T05:41:08;99766.26;;;8.71;78.92
70916;BME280;58557;50.982;-3.222;2023-04-01T05:43:36;99771.30;;;8.78;81.36
70916;BME280;58557;50.982;-3.222;2023-04-01T05:45:59;99770.32;;;10.57;75.37
70916;BME280;58557;50.982;-3.222;2023-04-01T05:48:24;99776.24;;;10.44;76.25
70916;BME280;58557;50.982;-3.222;2023-04-01T05:50:55;99771.10;;;9.13;78.88
70916;BME280;58557;50.982;-3.222;2023-04-01T05:53:16;99775.22;;;8.01;81.54
70916;BME280;58557;50.982;-3.222;2023-04-01T05:55:42;99776.52;;;9.42;77.01
70916;BME280;58557;50.982;-3.222;2023-04-01T05:58:08;99776.83;;;9.65;77.46
70916;BME280;58557;50.982;-3.222;2023-04-01T06:02:59;99785.17;;;10.29;77.53
70916;BME280;58557;50.982;-3.222;2023-04-01T06:05:35;99782.61;;;8.79;80.64
70916;BME280;58557;50.982;-3.222;2023-04-01T06:12:49;99781.25;;;9.33;82.76
70916;BME280;58557;50.982;-3.222;2023-04-01T06:15:20;99783.48;;;9.40;79.92
70916;BME280;58557;50.982;-3.222;2023-04-01T06:17:43;99784.20;;;9.55;79.17
70916;BME280;58557;50.982;-3.222;2023-04-01T06:20:06;99785.98;;;8.38;82.46
70916;BME280;58557;50.982;-3.222;2023-04-01T06:22:43;99781.79;;;9.51;80.50
70916;BME280;58557;50.982;-3.222;2023-04-01T06:27:36;99788.99;;;8.37;81.66
70916;BME280;58557;50.982;-3.222;2023-04-01T06:29:50;99795.88;;;9.32;80.10
70916;BME280;58557;50.982;-3.222;2023-04-01T06:32:20;99797.26;;;9.37;80.68
70916;BME280;58557;50.982;-3.222;2023-04-01T06:34:46;99801.69;;;9.99;78.17
70916;BME280;58557;50.982;-3.222;2023-04-01T06:37:09;99801.88;;;9.98;78.51
70916;BME280;58557;50.982;-3.222;2023-04-01T06:39:30;99806.97;;;8.65;79.94
70916;BME280;58557;50.982;-3.222;2023-04-01T06:44:17;99808.43;;;9.97;77.47
70916;BME280;58557;50.982;-3.222;2023-04-01T06:46:45;99807.47;;;9.22;77.88
70916;BME280;58557;50.982;-3.222;2023-04-01T06:51:38;99818.01;;;9.92;79.10
70916;BME280;58557;50.982;-3.222;2023-04-01T06:54:04;99816.16;;;9.95;77.82
70916;BME280;58557;50.982;-3.222;2023-04-01T06:56:24;99824.87;;;10.98;75.62
70916;BME280;58557;50.982;-3.222;2023-04-01T06:58:50;99830.21;;;11.14;74.13
70916;BME280;58557;50.982;-3.222;2023-04-01T07:01:16;99833.86;;;11.17;73.95
70916;BME280;58557;50.982;-3.222;2023-04-01T07:03:41;99837.31;;;11.20;72.78
70916;BME280;58557;50.982;-3.222;2023-04-01T07:06:06;99834.57;;;11.20;74.12
70916;BME280;58557;50.982;-3.222;2023-04-01T07:08:33;99841.83;;;11.80;71.04
70916;BME280;58557;50.982;-3.222;2023-04-01T07:10:58;99840.71;;;12.61;68.55
70916;BME280;58557;50.982;-3.222;2023-04-01T07:15:54;99838.01;;;12.54;68.16
70916;BME280;58557;50.982;-3.222;2023-04-01T07:18:17;99843.34;;;10.96;74.56
70916;BME280;58557;50.982;-3.222;2023-04-01T07:20:38;99843.64;;;11.76;71.52
70916;BME280;58557;50.982;-3.222;2023-04-01T07:23:15;99839.85;;;11.85;70.43
70916;BME280;58557;50.982;-3.222;2023-04-01T07:25:37;99842.73;;;12.04;69.59
70916;BME280;58557;50.982;-3.222;2023-04-01T07:28:02;99843.35;;;12.29;68.27
70916;BME280;58557;50.982;-3.222;2023-04-01T07:30:23;99854.64;;;11.69;68.48
70916;BME280;58557;50.982;-3.222;2023-04-01T07:32:50;99851.21;;;11.35;71.32
70916;BME280;58557;50.982;-3.222;2023-04-01T07:35:20;99851.20;;;11.47;70.85
70916;BME280;58557;50.982;-3.222;2023-04-01T07:37:45;99856.65;;;12.01;69.53
70916;BME280;58557;50.982;-3.222;2023-04-01T07:40:14;99852.85;;;12.13;69.08
70916;BME280;58557;50.982;-3.222;2023-04-01T07:42:38;99852.57;;;12.14;68.84
70916;BME280;58557;50.982;-3.222;2023-04-01T07:45:03;99853.74;;;12.19;68.91
70916;BME280;58557;50.982;-3.222;2023-04-01T07:47:33;99857.63;;;12.79;68.53
70916;BME280;58557;50.982;-3.222;2023-04-01T07:49:53;99863.92;;;10.62;71.28
70916;BME280;58557;50.982;-3.222;2023-04-01T07:52:16;99861.68;;;11.61;70.25
70916;BME280;58557;50.982;-3.222;2023-04-01T07:54:41;99862.96;;;11.92;68.92
70916;BME280;58557;50.982;-3.222;2023-04-01T07:57:05;99866.48;;;11.84;69.13
70916;BME280;58557;50.982;-3.222;2023-04-01T07:59:34;99870.19;;;10.49;72.44
70916;BME280;58557;50.982;-3.222;2023-04-01T08:02:01;99874.01;;;10.72;73.05
70916;BME280;58557;50.982;-3.222;2023-04-01T08:04:28;99876.86;;;11.35;69.92
70916;BME280;58557;50.982;-3.222;2023-04-01T08:06:51;99876.71;;;11.50;69.96
70916;BME280;58557;50.982;-3.222;2023-04-01T08:09:18;99880.75;;;11.61;69.12
70916;BME280;58557;50.982;-3.222;2023-04-01T08:11:50;99885.22;;;10.79;70.80
70916;BME280;58557;50.982;-3.222;2023-04-01T08:14:09;99879.64;;;13.26;65.55
70916;BME280;58557;50.982;-3.222;2023-04-01T08:16:34;99882.92;;;13.15;65.04
70916;BME280;58557;50.982;-3.222;2023-04-01T08:19:01;99887.59;;;11.53;68.77
70916;BME280;58557;50.982;-3.222;2023-04-01T08:21:23;99888.43;;;13.01;66.30
70916;BME280;58557;50.982;-3.222;2023-04-01T08:23:48;99895.37;;;11.19;70.98
70916;BME280;58557;50.982;-3.222;2023-04-01T08:26:16;99901.47;;;11.07;70.15
70916;BME280;58557;50.982;-3.222;2023-04-01T08:28:42;99902.20;;;11.84;70.45
70916;BME280;58557;50.982;-3.222;2023-04-01T08:31:06;99908.54;;;11.24;72.13
70916;BME280;58557;50.982;-3.222;2023-04-01T08:33:30;99908.48;;;10.47;72.54
70916;BME280;58557;50.982;-3.222;2023-04-01T08:35:59;99918.15;;;11.07;73.46
70916;BME280;58557;50.982;-3.222;2023-04-01T08:38:26;99918.88;;;10.93;73.79
70916;BME280;58557;50.982;-3.222;2023-04-01T08:40:56;99915.79;;;10.35;75.49
70916;BME280;58557;50.982;-3.222;2023-04-01T08:43:16;99917.52;;;10.48;75.60
70916;BME280;58557;50.982;-3.222;2023-04-01T08:45:49;99923.05;;;9.41;78.95
70916;BME280;58557;50.982;-3.222;2023-04-01T08:50:44;99930.85;;;12.05;72.05
70916;BME280;58557;50.982;-3.222;2023-04-01T08:53:03;99933.04;;;10.72;75.47
70916;BME280;58557;50.982;-3.222;2023-04-01T08:55:31;99929.41;;;10.40;74.15
70916;BME280;58557;50.982;-3.222;2023-04-01T08:58:00;99939.52;;;11.40;72.76
70916;BME280;58557;50.982;-3.222;2023-04-01T09:00:22;99939.84;;;11.14;73.78
70916;BME280;58557;50.982;-3.222;2023-04-01T09:02:47;99942.43;;;11.53;75.13
70916;BME280;58557;50.982;-3.222;2023-04-01T09:05:20;99941.79;;;11.77;73.21
70916;BME280;58557;50.982;-3.222;2023-04-01T09:07:35;99942.46;;;11.20;73.31
70916;BME280;58557;50.982;-3.222;2023-04-01T09:12:31;99946.87;;;10.79;74.58
70916;BME280;58557;50.982;-3.222;2023-04-01T09:14:58;99950.07;;;10.78;75.41
70916;BME280;58557;50.982;-3.222;2023-04-01T09:17:21;99948.84;;;12.07;71.96
70916;BME280;58557;50.982;-3.222;2023-04-01T09:22:18;99956.72;;;10.65;74.02
70916;BME280;58557;50.982;-3.222;2023-04-01T09:24:44;99953.58;;;9.58;79.72
70916;BME280;58557;50.982;-3.222;2023-04-01T09:27:03;99956.52;;;10.56;79.61
70916;BME280;58557;50.982;-3.222;2023-04-01T09:29:31;99952.76;;;10.76;78.20
70916;BME280;58557;50.982;-3.222;2023-04-01T09:32:00;99958.84;;;11.51;76.22
70916;BME280;58557;50.982;-3.222;2023-04-01T09:34:25;99955.60;;;10.25;78.70
70916;BME280;58557;50.982;-3.222;2023-04-01T09:36:44;99959.02;;;12.27;73.06
70916;BME280;58557;50.982;-3.222;2023-04-01T09:39:16;99956.12;;;12.38;72.66
70916;BME280;58557;50.982;-3.222;2023-04-01T09:41:32;99961.77;;;11.91;73.39
70916;BME280;58557;50.982;-3.222;2023-04-01T09:44:01;99962.78;;;11.92;73.84
70916;BME280;58557;50.982;-3.222;2023-04-01T09:46:27;99961.46;;;12.28;72.56
70916;BME280;58557;50.982;-3.222;2023-04-01T09:49:04;99968.43;;;11.07;76.36
70916;BME280;58557;50.982;-3.222;2023-04-01T09:51:23;99963.55;;;12.49;73.75
70916;BME280;58557;50.982;-3.222;2023-04-01T09:53:48;99972.26;;;11.29;75.87
70916;BME280;58557;50.982;-3.222;2023-04-01T10:06:02;99980.92;;;12.26;72.27
70916;BME280;58557;50.982;-3.222;2023-04-01T10:08:24;99981.82;;;13.39;69.55
70916;BME280;58557;50.982;-3.222;2023-04-01T10:10:47;99980.51;;;13.48;68.19
70916;BME280;58557;50.982;-3.222;2023-04-01T10:13:19;99986.16;;;14.27;65.75
70916;BME280;58557;50.982;-3.222;2023-04-01T10:15:43;99990.45;;;13.63;67.97
70916;BME280;58557;50.982;-3.222;2023-04-01T10:18:06;99995.24;;;12.25;69.73
70916;BME280;58557;50.982;-3.222;2023-04-01T10:23:02;100001.87;;;11.90;69.50
70916;BME280;58557;50.982;-3.222;2023-04-01T10:25:27;100009.24;;;11.85;69.52
70916;BME280;58557;50.982;-3.222;2023-04-01T10:27:53;100004.81;;;10.97;70.71
70916;BME280;58557;50.982;-3.222;2023-04-01T10:30:24;100006.69;;;10.00;71.90
70916;BME280;58557;50.982;-3.222;2023-04-01T10:37:39;100017.33;;;11.03;71.93
70916;BME280;58557;50.982;-3.222;2023-04-01T10:40:05;100020.33;;;11.92;68.63
70916;BME280;58557;50.982;-3.222;2023-04-01T10:49:39;100033.54;;;11.42;70.17
70916;BME280;58557;50.982;-3.222;2023-04-01T10:52:14;100032.06;;;10.64;73.19
70916;BME280;58557;50.982;-3.222;2023-04-01T10:54:39;100029.41;;;11.09;72.02
70916;BME280;58557;50.982;-3.222;2023-04-01T10:56:54;100030.28;;;10.78;73.88
70916;BME280;58557;50.982;-3.222;2023-04-01T10:59:31;100033.29;;;10.08;74.93
70916;BME280;58557;50.982;-3.222;2023-04-01T11:16:27;100037.54;;;9.62;78.70
70916;BME280;58557;50.982;-3.222;2023-04-01T11:18:55;100044.18;;;9.66;77.40
70916;BME280;58557;50.982;-3.222;2023-04-01T11:23:42;100055.15;;;9.97;77.88
70916;BME280;58557;50.982;-3.222;2023-04-01T11:26:04;100057.63;;;9.62;76.98
70916;BME280;58557;50.982;-3.222;2023-04-01T11:30:55;100072.07;;;10.15;78.44
70916;BME280;58557;50.982;-3.222;2023-04-01T11:33:20;100076.39;;;10.09;78.75
70916;BME280;58557;50.982;-3.222;2023-04-01T11:35:52;100076.10;;;10.16;78.32
70916;BME280;58557;50.982;-3.222;2023-04-01T11:38:17;100076.80;;;10.80;77.22
70916;BME280;58557;50.982;-3.222;2023-04-01T11:40:37;100076.99;;;10.28;75.79
70916;BME280;58557;50.982;-3.222;2023-04-01T11:43:01;100081.00;;;10.00;75.78
70916;BME280;58557;50.982;-3.222;2023-04-01T11:45:33;100081.45;;;11.12;73.35
70916;BME280;58557;50.982;-3.222;2023-04-01T11:48:00;100085.06;;;11.32;71.75
70916;BME280;58557;50.982;-3.222;2023-04-01T11:50:23;100091.17;;;11.49;71.19
70916;BME280;58557;50.982;-3.222;2023-04-01T11:52:56;100087.79;;;10.52;71.90
70916;BME280;58557;50.982;-3.222;2023-04-01T11:55:18;100093.31;;;10.85;73.25
70916;BME280;58557;50.982;-3.222;2023-04-01T11:57:48;100100.78;;;10.61;73.68
70916;BME280;58557;50.982;-3.222;2023-04-01T12:00:19;100107.38;;;10.30;74.05
70916;BME280;58557;50.982;-3.222;2023-04-01T12:02:28;100116.37;;;10.23;77.45
70916;BME280;58557;50.982;-3.222;2023-04-01T12:04:58;100117.17;;;9.49;79.77
70916;BME280;58557;50.982;-3.222;2023-04-01T12:07:22;100121.65;;;9.30;80.31
70916;BME280;58557;50.982;-3.222;2023-04-01T12:09:46;100123.63;;;9.45;79.65
70916;BME280;58557;50.982;-3.222;2023-04-01T12:12:14;100129.30;;;10.74;76.17
70916;BME280;58557;50.982;-3.222;2023-04-01T12:14:36;100134.16;;;11.44;74.20
70916;BME280;58557;50.982;-3.222;2023-04-01T12:17:04;100135.69;;;10.76;75.86
70916;BME280;58557;50.982;-3.222;2023-04-01T12:19:29;100138.08;;;9.80;78.08
70916;BME280;58557;50.982;-3.222;2023-04-01T12:21:57;100142.40;;;11.66;73.87
70916;BME280;58557;50.982;-3.222;2023-04-01T12:24:25;100145.22;;;10.97;74.91
70916;BME280;58557;50.982;-3.222;2023-04-01T12:26:52;100150.46;;;11.06;75.19
70916;BME280;58557;50.982;-3.222;2023-04-01T12:31:41;100162.72;;;10.96;76.91
70916;BME280;58557;50.982;-3.222;2023-04-01T12:36:35;100168.06;;;9.81;81.48
70916;BME280;58557;50.982;-3.222;2023-04-01T12:39:03;100168.50;;;10.08;79.98
70916;BME280;58557;50.982;-3.222;2023-04-01T12:41:22;100176.05;;;9.70;82.03
70916;BME280;58557;50.982;-3.222;2023-04-01T12:46:12;100185.63;;;9.69;83.64
70916;BME280;58557;50.982;-3.222;2023-04-01T12:48:44;100185.68;;;9.58;82.66
70916;BME280;58557;50.982;-3.222;2023-04-01T12:51:10;100192.58;;;9.67;82.47
70916;BME280;58557;50.982;-3.222;2023-04-01T12:53:36;100196.84;;;9.89;81.56
70916;BME280;58557;50.982;-3.222;2023-04-01T12:56:00;100199.76;;;10.00;81.36
70916;BME280;58557;50.982;-3.222;2023-04-01T12:58:36;100201.49;;;9.90;81.34
70916;BME280;58557;50.982;-3.222;2023-04-01T13:00:52;100208.06;;;10.49;79.66
70916;BME280;58557;50.982;-3.222;2023-04-01T13:05:41;100215.61;;;9.48;84.90
70916;BME280;58557;50.982;-3.222;2023-04-01T13:08:00;100218.80;;;10.15;83.75
70916;BME280;58557;50.982;-3.222;2023-04-01T13:10:32;100217.52;;;10.41;81.76
70916;BME280;58557;50.982;-3.222;2023-04-01T13:13:00;100221.91;;;10.36;80.87
70916;BME280;58557;50.982;-3.222;2023-04-01T13:15:23;100230.60;;;10.25;80.98
70916;BME280;58557;50.982;-3.222;2023-04-01T13:17:45;100234.13;;;9.78;81.26
70916;BME280;58557;50.982;-3.222;2023-04-01T13:20:14;100237.04;;;10.18;80.59
70916;BME280;58557;50.982;-3.222;2023-04-01T13:22:45;100236.62;;;11.11;77.82
70916;BME280;58557;50.982;-3.222;2023-04-01T13:25:01;100243.49;;;10.93;77.63
70916;BME280;58557;50.982;-3.222;2023-04-01T13:27:28;100246.29;;;10.99;76.93
70916;BME280;58557;50.982;-3.222;2023-04-01T13:30:02;100247.98;;;10.40;79.37
70916;BME280;58557;50.982;-3.222;2023-04-01T13:32:25;100257.39;;;10.46;79.88
70916;BME280;58557;50.982;-3.222;2023-04-01T13:34:52;100265.29;;;9.82;82.21
70916;BME280;58557;50.982;-3.222;2023-04-01T13:37:20;100277.49;;;9.33;84.12
70916;BME280;58557;50.982;-3.222;2023-04-01T13:39:50;100275.51;;;9.01;85.81
70916;BME280;58557;50.982;-3.222;2023-04-01T13:42:08;100281.74;;;9.20;85.87
70916;BME280;58557;50.982;-3.222;2023-04-01T13:44:31;100284.42;;;9.49;83.87
70916;BME280;58557;50.982;-3.222;2023-04-01T13:51:56;100301.56;;;8.38;90.46
70916;BME280;58557;50.982;-3.222;2023-04-01T13:56:38;100308.61;;;9.99;84.01
70916;BME280;58557;50.982;-3.222;2023-04-01T14:01:31;100319.41;;;10.69;80.97
70916;BME280;58557;50.982;-3.222;2023-04-01T14:04:06;100321.61;;;10.36;81.00
70916;BME280;58557;50.982;-3.222;2023-04-01T14:06:27;100322.43;;;10.25;79.20
70916;BME280;58557;50.982;-3.222;2023-04-01T14:08:54;100328.19;;;10.51;80.33
70916;BME280;58557;50.982;-3.222;2023-04-01T14:11:16;100331.21;;;10.29;79.04